createdAt,value
2022-08-10T00:00:01.298Z,1.73
2022-08-10T00:02:28.999Z,2.30
2022-08-10T00:04:58.072Z,1.60
2022-08-10T00:07:26.025Z,1.50
2022-08-10T00:09:53.734Z,1.63
2022-08-10T00:12:21.468Z,1.90
2022-08-10T00:14:49.123Z,1.97
2022-08-10T00:17:16.948Z,1.70
2022-08-10T00:20:04.278Z,1.90
2022-08-10T00:22:34.268Z,2.00
2022-08-10T00:25:02.541Z,2.20
2022-08-10T00:27:51.830Z,1.80
2022-08-10T00:30:18.552Z,2.10
2022-08-10T00:32:46.834Z,1.90
2022-08-10T00:35:14.550Z,2.20
2022-08-10T00:37:43.606Z,2.20
2022-08-10T00:40:35.232Z,1.90
2022-08-10T00:43:05.890Z,2.13
2022-08-10T00:45:34.112Z,2.00
2022-08-10T00:48:01.874Z,1.90
2022-08-10T00:50:29.828Z,2.00
2022-08-10T00:52:58.928Z,2.23
2022-08-10T00:55:27.146Z,1.70
2022-08-10T00:57:55.718Z,2.43
2022-08-10T01:00:24.940Z,2.40
2022-08-10T01:02:53.186Z,1.93
2022-08-10T01:05:21.363Z,1.93
2022-08-10T01:08:07.204Z,2.27
2022-08-10T01:10:44.893Z,2.30
2022-08-10T01:13:18.702Z,2.30
2022-08-10T01:15:54.291Z,2.37
2022-08-10T01:18:28.178Z,2.20
2022-08-10T01:21:14.015Z,2.33
2022-08-10T01:24:10.227Z,2.37
2022-08-10T01:26:51.258Z,2.57
2022-08-10T01:29:55.021Z,2.50
2022-08-10T01:32:32.496Z,2.50
2022-08-10T01:35:07.878Z,2.50
2022-08-10T01:37:39.891Z,2.60
2022-08-10T01:40:09.896Z,2.60
2022-08-10T01:42:38.130Z,2.43
2022-08-10T01:45:08.778Z,2.57
2022-08-10T01:47:58.536Z,2.50
2022-08-10T01:50:29.795Z,2.67
2022-08-10T01:53:02.446Z,2.50
2022-08-10T01:55:31.322Z,2.60
2022-08-10T01:58:01.925Z,2.53
2022-08-10T02:00:32.252Z,2.43
2022-08-10T02:03:01.995Z,2.40
2022-08-10T02:05:30.559Z,22.57
2022-08-10T02:08:00.983Z,15.67
2022-08-10T02:10:29.061Z,15.13
2022-08-10T02:12:58.303Z,7.73
2022-08-10T02:15:29.695Z,3.90
2022-08-10T02:18:03.169Z,3.57
2022-08-10T02:20:34.196Z,3.50
2022-08-10T02:23:03.542Z,3.60
2022-08-10T02:25:42.714Z,3.03
2022-08-10T02:28:27.496Z,2.90
2022-08-10T02:31:00.769Z,2.80
2022-08-10T02:33:31.122Z,2.57
2022-08-10T02:36:00.466Z,2.70
2022-08-10T02:38:59.531Z,2.70
2022-08-10T02:45:01.234Z,2.37
2022-08-10T02:45:19.339Z,2.80
2022-08-10T02:47:11.940Z,2.57
2022-08-10T02:49:43.932Z,3.10
2022-08-10T02:52:18.065Z,2.90
2022-08-10T02:54:52.017Z,2.67
2022-08-10T02:57:22.322Z,2.63
2022-08-10T02:59:52.898Z,2.40
2022-08-10T03:02:26.236Z,2.50
2022-08-10T03:05:00.711Z,2.27
2022-08-10T03:07:43.581Z,2.70
2022-08-10T03:10:15.997Z,2.40
2022-08-10T03:12:44.689Z,2.43
2022-08-10T03:15:15.421Z,2.83
2022-08-10T03:17:56.890Z,2.60
2022-08-10T03:20:36.737Z,2.77
2022-08-10T03:23:11.782Z,2.70
2022-08-10T03:25:39.700Z,2.43
2022-08-10T03:28:08.018Z,2.67
2022-08-10T03:30:35.997Z,2.50
2022-08-10T03:33:05.420Z,2.60
2022-08-10T03:35:34.670Z,2.63
2022-08-10T03:38:02.770Z,2.93
2022-08-10T03:40:45.189Z,2.90
2022-08-10T03:43:18.826Z,2.93
2022-08-10T03:45:55.377Z,2.97
2022-08-10T03:48:24.476Z,2.77
2022-08-10T03:51:05.798Z,3.00
2022-08-10T03:54:05.814Z,2.87
2022-08-10T03:56:28.498Z,2.97
2022-08-10T03:59:00.289Z,3.17
2022-08-10T04:02:43.940Z,3.10
2022-08-10T04:04:22.525Z,3.10
2022-08-10T04:06:54.870Z,2.97
2022-08-10T04:09:23.745Z,3.07
2022-08-10T04:11:51.359Z,3.40
2022-08-10T04:14:38.571Z,3.03
2022-08-10T04:17:09.648Z,3.27
2022-08-10T04:19:44.025Z,2.80
2022-08-10T04:22:16.296Z,3.00
2022-08-10T04:24:44.975Z,3.10
2022-08-10T04:27:12.988Z,3.17
2022-08-10T04:29:40.777Z,3.13
2022-08-10T04:32:10.485Z,3.43
2022-08-10T04:34:38.863Z,3.50
2022-08-10T04:37:09.285Z,3.57
2022-08-10T04:39:38.645Z,3.37
2022-08-10T04:42:07.036Z,3.57
2022-08-10T04:44:35.307Z,3.30
2022-08-10T04:47:02.908Z,3.63
2022-08-10T04:49:56.197Z,3.50
2022-08-10T04:52:18.644Z,3.60
2022-08-10T04:54:47.673Z,3.40
2022-08-10T04:57:15.573Z,4.17
2022-08-10T04:59:43.250Z,3.40
2022-08-10T05:02:30.216Z,4.20
2022-08-10T05:04:59.313Z,4.00
2022-08-10T05:07:27.274Z,4.13
2022-08-10T05:10:03.881Z,3.87
2022-08-10T05:12:36.303Z,3.77
2022-08-10T05:15:06.894Z,4.70
2022-08-10T05:17:34.808Z,4.20
2022-08-10T05:20:06.459Z,4.00
2022-08-10T05:22:37.211Z,4.30
2022-08-10T05:25:08.484Z,4.30
2022-08-10T05:27:36.467Z,3.83
2022-08-10T05:30:05.620Z,3.47
2022-08-10T05:32:57.354Z,3.17
2022-08-10T05:35:22.316Z,3.30
2022-08-10T05:38:08.897Z,3.60
2022-08-10T05:40:42.679Z,3.80
2022-08-10T05:43:14.936Z,3.60
2022-08-10T05:46:18.958Z,3.27
2022-08-10T05:48:55.671Z,3.47
2022-08-10T05:51:21.513Z,3.33
2022-08-10T05:54:02.531Z,3.10
2022-08-10T05:56:54.727Z,3.43
2022-08-10T06:00:34.603Z,3.17
2022-08-10T06:02:30.967Z,3.70
2022-08-10T06:05:06.424Z,4.03
2022-08-10T06:07:36.390Z,3.83
2022-08-10T06:10:10.249Z,3.23
2022-08-10T06:12:55.567Z,3.70
2022-08-10T06:15:52.168Z,3.77
2022-08-10T06:18:13.426Z,4.13
2022-08-10T06:20:41.180Z,3.50
2022-08-10T06:23:09.282Z,3.77
2022-08-10T06:28:26.707Z,3.43
2022-08-10T06:30:55.843Z,3.60
2022-08-10T06:33:24.779Z,3.27
2022-08-10T06:35:55.238Z,3.20
2022-08-10T06:38:25.670Z,3.60
2022-08-10T06:40:56.981Z,3.27
2022-08-10T06:43:26.575Z,3.50
2022-08-10T06:46:06.866Z,3.43
2022-08-10T06:48:40.353Z,3.30
2022-08-10T06:51:09.714Z,3.40
2022-08-10T06:53:52.331Z,3.83
2022-08-10T06:56:37.868Z,3.33
2022-08-10T06:59:14.609Z,3.33
2022-08-10T07:01:51.584Z,3.10
2022-08-10T07:04:32.839Z,3.60
2022-08-10T07:07:05.214Z,3.37
2022-08-10T07:09:34.334Z,3.20
2022-08-10T07:12:07.603Z,3.30
2022-08-10T07:14:38.163Z,3.40
2022-08-10T07:17:06.879Z,2.93
2022-08-10T07:19:34.912Z,3.07
2022-08-10T07:23:27.413Z,3.20
2022-08-10T07:25:08.104Z,2.83
2022-08-10T07:27:39.282Z,2.70
2022-08-10T07:30:28.154Z,2.70
2022-08-10T07:32:56.508Z,3.37
2022-08-10T07:35:25.461Z,3.00
2022-08-10T07:37:53.980Z,3.13
2022-08-10T07:40:23.453Z,3.03
2022-08-10T07:42:53.857Z,2.90
2022-08-10T07:45:22.133Z,3.35
2022-08-10T07:48:03.705Z,4.07
2022-08-10T07:50:36.132Z,5.85
2022-08-10T07:53:05.398Z,3.50
2022-08-10T07:56:01.712Z,5.20
2022-08-10T07:58:23.645Z,3.35
2022-08-10T08:00:52.099Z,3.05
2022-08-10T08:03:25.256Z,3.30
2022-08-10T08:05:58.569Z,3.83
2022-08-10T08:08:34.231Z,3.75
2022-08-10T08:11:02.267Z,3.17
2022-08-10T08:13:30.626Z,3.47
2022-08-10T08:16:17.680Z,3.08
2022-08-10T08:19:09.927Z,3.50
2022-08-10T08:24:05.895Z,3.25
2022-08-10T08:24:33.566Z,2.80
2022-08-10T08:27:03.677Z,3.03
2022-08-10T08:29:34.475Z,3.38
2022-08-10T08:32:03.627Z,3.20
2022-08-10T08:34:34.299Z,3.30
2022-08-10T08:37:02.274Z,2.65
2022-08-10T08:39:31.820Z,3.03
2022-08-10T08:42:19.726Z,3.22
2022-08-10T08:45:00.740Z,2.83
2022-08-10T08:48:04.325Z,2.90
2022-08-10T08:50:45.180Z,2.60
2022-08-10T08:53:25.503Z,2.60
2022-08-10T08:56:21.327Z,2.97
2022-08-10T08:59:04.598Z,3.13
2022-08-10T09:01:47.920Z,3.10
2022-08-10T09:04:38.046Z,3.30
2022-08-10T09:08:01.120Z,3.30
2022-08-10T09:10:37.168Z,2.83
2022-08-10T09:13:11.679Z,3.33
2022-08-10T09:15:46.002Z,3.75
2022-08-10T09:18:22.160Z,3.60
2022-08-10T09:21:05.431Z,3.17
2022-08-10T09:24:01.469Z,3.10
2022-08-10T09:26:31.403Z,2.95
2022-08-10T09:29:12.381Z,3.00
2022-08-10T09:32:57.388Z,2.65
2022-08-10T09:36:26.783Z,3.13
2022-08-10T09:37:58.664Z,2.92
2022-08-10T09:40:57.492Z,2.97
2022-08-10T09:43:25.418Z,2.55
2022-08-10T09:45:59.229Z,2.72
2022-08-10T09:48:33.191Z,2.88
2022-08-10T09:54:01.262Z,2.80
2022-08-10T09:56:35.051Z,3.05
2022-08-10T09:59:56.496Z,2.55
2022-08-10T10:02:08.893Z,3.05
2022-08-10T10:04:44.561Z,2.55
2022-08-10T10:07:15.926Z,2.65
2022-08-10T10:09:50.819Z,2.70
2022-08-10T10:12:26.854Z,2.75
2022-08-10T10:15:25.191Z,2.72
2022-08-10T10:18:35.047Z,2.38
2022-08-10T10:21:06.696Z,2.60
2022-08-10T10:23:42.199Z,2.80
2022-08-10T10:26:18.681Z,2.67
2022-08-10T10:31:49.418Z,2.63
2022-08-10T10:34:22.916Z,2.60
2022-08-10T10:36:52.264Z,2.67
2022-08-10T10:39:24.103Z,2.72
2022-08-10T10:42:03.574Z,2.75
2022-08-10T10:44:42.554Z,3.10
2022-08-10T10:47:18.513Z,3.35
2022-08-10T10:49:50.982Z,2.83
2022-08-10T10:52:30.682Z,2.90
2022-08-10T10:55:05.457Z,3.00
2022-08-10T10:57:59.392Z,2.72
2022-08-10T11:00:31.034Z,2.78
2022-08-10T11:03:07.822Z,2.83
2022-08-10T11:05:42.388Z,3.17
2022-08-10T11:08:14.455Z,2.85
2022-08-10T11:10:47.514Z,3.10
2022-08-10T11:14:25.004Z,2.40
2022-08-10T11:16:20.006Z,2.97
2022-08-10T11:18:57.505Z,3.00
2022-08-10T11:21:36.866Z,2.85
2022-08-10T11:24:47.038Z,3.08
2022-08-10T11:27:03.575Z,2.97
2022-08-10T11:29:45.296Z,2.90
2022-08-10T11:32:23.337Z,2.70
2022-08-10T11:35:11.517Z,2.60
2022-08-10T11:38:34.481Z,2.60
2022-08-10T11:40:39.152Z,2.40
2022-08-10T11:43:11.843Z,2.60
2022-08-10T11:45:51.993Z,2.47
2022-08-10T11:48:54.066Z,2.63
2022-08-10T11:51:20.906Z,2.75
2022-08-10T11:53:52.524Z,2.63
2022-08-10T11:56:26.665Z,2.60
2022-08-10T11:59:17.096Z,2.50
2022-08-10T12:01:45.834Z,2.30
2022-08-10T12:04:15.417Z,2.65
2022-08-10T12:06:59.054Z,2.63
2022-08-10T12:10:08.983Z,2.70
2022-08-10T12:12:16.797Z,2.70
2022-08-10T12:14:50.009Z,2.95
2022-08-10T12:17:19.766Z,2.40
2022-08-10T12:20:02.653Z,2.70
2022-08-10T12:22:35.634Z,3.03
2022-08-10T12:25:06.896Z,2.83
2022-08-10T12:27:44.337Z,2.92
2022-08-10T12:30:15.854Z,3.05
2022-08-10T12:32:49.902Z,2.70
2022-08-10T12:35:26.523Z,2.60
2022-08-10T12:38:04.329Z,2.80
2022-08-10T12:40:36.924Z,3.00
2022-08-10T12:44:05.241Z,3.03
2022-08-10T12:46:07.005Z,2.83
2022-08-10T12:48:38.204Z,2.75
2022-08-10T12:51:14.227Z,2.75
2022-08-10T12:53:53.250Z,2.45
2022-08-10T12:56:23.049Z,2.72
2022-08-10T12:58:59.902Z,3.22
2022-08-10T13:02:06.358Z,2.90
2022-08-10T13:04:21.506Z,3.35
2022-08-10T13:06:53.229Z,3.10
2022-08-10T13:09:22.850Z,3.20
2022-08-10T13:12:36.796Z,2.78
2022-08-10T13:14:49.778Z,2.80
2022-08-10T13:17:25.006Z,2.45
2022-08-10T13:20:16.276Z,2.83
2022-08-10T13:22:47.449Z,2.83
2022-08-10T13:25:17.005Z,2.97
2022-08-10T13:28:03.139Z,3.10
2022-08-10T13:30:35.556Z,3.42
2022-08-10T13:33:06.379Z,2.83
2022-08-10T13:35:35.257Z,2.63
2022-08-10T13:38:05.314Z,2.60
2022-08-10T13:40:34.309Z,2.67
2022-08-10T13:43:04.569Z,3.40
2022-08-10T13:45:32.822Z,2.88
2022-08-10T13:48:10.837Z,3.00
2022-08-10T13:50:40.120Z,2.75
2022-08-10T13:53:15.278Z,2.50
2022-08-10T13:55:54.155Z,2.67
2022-08-10T13:58:25.026Z,2.80
2022-08-10T14:00:53.603Z,2.72
2022-08-10T14:03:22.583Z,2.95
2022-08-10T14:05:52.402Z,3.58
2022-08-10T14:08:24.859Z,2.60
2022-08-10T14:11:09.184Z,3.13
2022-08-10T14:13:43.547Z,2.72
2022-08-10T14:16:12.561Z,2.60
2022-08-10T14:18:42.411Z,2.50
2022-08-10T14:21:10.346Z,2.53
2022-08-10T14:23:42.291Z,2.75
2022-08-10T14:26:19.872Z,2.67
2022-08-10T14:28:51.951Z,2.65
2022-08-10T14:31:22.440Z,2.30
2022-08-10T14:33:54.347Z,2.60
2022-08-10T14:36:31.329Z,3.00
2022-08-10T14:39:04.882Z,2.38
2022-08-10T14:42:03.002Z,3.42
2022-08-10T14:44:24.051Z,2.63
2022-08-10T14:46:58.161Z,2.58
2022-08-10T14:49:27.459Z,2.90
2022-08-10T14:52:01.051Z,2.38
2022-08-10T14:54:32.193Z,2.70
2022-08-10T14:57:11.413Z,2.53
2022-08-10T15:00:24.628Z,2.72
2022-08-10T15:02:39.589Z,2.53
2022-08-10T15:05:18.752Z,2.60
2022-08-10T15:07:47.842Z,2.50
2022-08-10T15:10:29.420Z,2.72
2022-08-10T15:12:58.696Z,2.53
2022-08-10T15:15:31.293Z,2.50
2022-08-10T15:18:18.758Z,2.17
2022-08-10T15:20:56.960Z,2.30
2022-08-10T15:23:30.647Z,2.30
2022-08-10T15:26:07.166Z,2.33
2022-08-10T15:29:23.777Z,2.20
2022-08-10T15:31:34.761Z,2.28
2022-08-10T15:34:22.807Z,2.25
2022-08-10T15:37:40.432Z,2.10
2022-08-10T15:40:21.509Z,2.30
2022-08-10T15:43:00.309Z,2.17
2022-08-10T15:45:29.243Z,2.22
2022-08-10T15:48:03.762Z,2.30
2022-08-10T15:50:35.922Z,2.95
2022-08-10T15:53:16.111Z,2.30
2022-08-10T15:55:48.780Z,2.28
2022-08-10T15:58:30.147Z,2.22
2022-08-10T16:02:13.816Z,2.28
2022-08-10T16:04:08.519Z,2.25
2022-08-10T16:06:40.638Z,2.17
2022-08-10T16:10:24.092Z,2.38
2022-08-10T16:12:05.758Z,1.95
2022-08-10T16:14:37.298Z,2.10
2022-08-10T16:17:10.390Z,1.92
2022-08-10T16:19:39.770Z,2.40
2022-08-10T16:22:34.209Z,1.95
2022-08-10T16:24:58.135Z,2.28
2022-08-10T16:27:28.499Z,1.88
2022-08-10T16:30:01.887Z,2.55
2022-08-10T16:32:31.749Z,1.95
2022-08-10T16:35:00.888Z,2.30
2022-08-10T16:37:57.627Z,2.17
2022-08-10T16:40:25.506Z,2.45
2022-08-10T16:42:54.563Z,2.67
2022-08-10T16:45:31.268Z,2.00
2022-08-10T16:47:59.823Z,2.20
2022-08-10T16:50:30.581Z,2.50
2022-08-10T16:53:01.929Z,1.90
2022-08-10T16:55:48.058Z,2.20
2022-08-10T16:58:21.018Z,2.20
2022-08-10T17:00:50.835Z,2.03
2022-08-10T17:03:22.781Z,2.05
2022-08-10T17:06:13.492Z,2.40
2022-08-10T17:08:48.692Z,2.03
2022-08-10T17:11:18.049Z,1.90
2022-08-10T17:13:46.121Z,1.98
2022-08-10T17:16:17.288Z,2.28
2022-08-10T17:18:47.860Z,1.92
2022-08-10T17:21:19.442Z,1.92
2022-08-10T17:23:50.157Z,1.80
2022-08-10T17:26:23.942Z,2.35
2022-08-10T17:29:09.496Z,2.20
2022-08-10T17:31:59.970Z,2.05
2022-08-10T17:34:31.071Z,1.90
2022-08-10T17:37:00.419Z,2.50
2022-08-10T17:39:32.267Z,2.95
2022-08-10T17:42:01.155Z,2.70
2022-08-10T17:44:30.826Z,2.70
2022-08-10T17:47:01.166Z,2.30
2022-08-10T17:49:39.308Z,1.90
2022-08-10T17:52:09.868Z,1.93
2022-08-10T17:54:40.061Z,1.92
2022-08-10T17:57:10.450Z,2.10
2022-08-10T17:59:38.964Z,2.17
2022-08-10T18:02:10.229Z,1.90
2022-08-10T18:04:41.395Z,2.30
2022-08-10T18:07:11.489Z,2.30
2022-08-10T18:09:41.355Z,2.00
2022-08-10T18:12:17.613Z,2.20
2022-08-10T18:14:48.564Z,2.10
2022-08-10T18:17:20.639Z,1.90
2022-08-10T18:19:55.423Z,1.93
2022-08-10T18:22:25.025Z,2.20
2022-08-10T18:24:53.985Z,2.10
2022-08-10T18:27:22.681Z,2.07
2022-08-10T18:30:12.027Z,1.90
2022-08-10T18:32:42.506Z,2.60
2022-08-10T18:35:11.001Z,2.80
2022-08-10T18:37:39.339Z,2.63
2022-08-10T18:40:09.455Z,2.40
2022-08-10T18:42:42.546Z,2.10
2022-08-10T18:45:11.510Z,1.90
2022-08-10T18:47:59.343Z,2.10
2022-08-10T18:50:30.514Z,2.20
2022-08-10T18:53:02.233Z,2.00
2022-08-10T18:55:39.817Z,2.10
2022-08-10T18:58:46.367Z,2.30
2022-08-10T19:01:21.506Z,2.00
2022-08-10T19:03:58.692Z,1.90
2022-08-10T19:06:59.867Z,2.20
2022-08-10T19:09:47.703Z,2.13
2022-08-10T19:12:30.129Z,2.00
2022-08-10T19:15:06.955Z,2.00
2022-08-10T19:18:05.799Z,1.77
2022-08-10T19:20:35.192Z,2.10
2022-08-10T19:23:10.943Z,2.00
2022-08-10T19:26:38.144Z,2.00
2022-08-10T19:28:34.523Z,1.87
2022-08-10T19:31:05.445Z,1.87
2022-08-10T19:33:42.621Z,1.97
2022-08-10T19:36:17.428Z,1.90
2022-08-10T19:38:51.290Z,1.97
2022-08-10T19:41:32.372Z,2.07
2022-08-10T19:44:16.733Z,2.57
2022-08-10T19:46:49.058Z,2.10
2022-08-10T19:49:39.593Z,2.30
2022-08-10T19:52:13.099Z,2.20
2022-08-10T19:54:47.890Z,2.17
2022-08-10T19:57:26.075Z,2.33
2022-08-10T20:00:16.236Z,2.30
2022-08-10T20:02:52.529Z,2.40
2022-08-10T20:05:26.663Z,2.30
2022-08-10T20:07:59.250Z,2.13
2022-08-10T20:10:34.523Z,2.23
2022-08-10T20:13:10.140Z,2.10
2022-08-10T20:15:41.945Z,1.90
2022-08-10T20:18:13.899Z,2.30
2022-08-10T20:20:46.691Z,1.90
2022-08-10T20:23:18.723Z,2.23
2022-08-10T20:25:49.018Z,2.20
2022-08-10T20:28:21.303Z,2.20
2022-08-10T20:30:53.285Z,2.00
2022-08-10T20:33:28.213Z,2.30
2022-08-10T20:36:01.725Z,2.30
2022-08-10T20:38:35.224Z,2.73
2022-08-10T20:41:09.966Z,2.00
2022-08-10T20:43:45.607Z,2.00
2022-08-10T20:46:21.438Z,2.30
2022-08-10T20:48:54.042Z,2.10
2022-08-10T20:51:23.962Z,2.20
2022-08-10T20:54:13.583Z,2.00
2022-08-10T20:56:50.779Z,2.10
2022-08-10T21:00:04.257Z,1.90
2022-08-10T21:02:36.821Z,2.30
2022-08-10T21:05:13.732Z,2.00
2022-08-10T21:08:07.914Z,1.97
2022-08-10T21:10:53.237Z,2.40
2022-08-10T21:13:34.647Z,2.07
2022-08-10T21:16:08.115Z,2.40
2022-08-10T21:18:46.821Z,1.80
2022-08-10T21:21:57.066Z,1.90
2022-08-10T21:24:32.121Z,2.13
2022-08-10T21:27:13.357Z,2.00
2022-08-10T21:29:51.064Z,2.03
2022-08-10T21:32:38.009Z,2.00
2022-08-10T21:35:37.387Z,2.03
2022-08-10T21:38:23.548Z,2.00
2022-08-10T21:41:27.979Z,1.90
2022-08-10T21:44:40.713Z,2.10
2022-08-10T21:47:43.381Z,1.90
2022-08-10T21:50:42.164Z,1.97
2022-08-10T21:53:44.004Z,2.20
2022-08-10T21:56:36.188Z,2.20
2022-08-10T21:59:23.846Z,2.03
2022-08-10T22:02:13.317Z,1.83
2022-08-10T22:04:58.567Z,1.90
2022-08-10T22:07:45.074Z,1.77
2022-08-10T22:10:31.249Z,2.03
2022-08-10T22:13:19.603Z,2.07
2022-08-10T22:16:11.567Z,1.97
2022-08-10T22:19:02.988Z,2.10
2022-08-10T22:21:58.692Z,2.00
2022-08-10T22:24:56.584Z,1.97
2022-08-10T22:27:48.885Z,1.77
2022-08-10T22:30:36.037Z,2.07
2022-08-10T22:33:34.183Z,1.87
2022-08-10T22:36:36.694Z,1.90
2022-08-10T22:40:07.419Z,2.83
2022-08-10T22:42:59.693Z,2.00
2022-08-10T22:45:44.020Z,2.10
2022-08-10T22:48:29.396Z,2.00
2022-08-10T22:50:59.071Z,1.90
2022-08-10T22:53:51.550Z,2.03
2022-08-10T22:56:38.057Z,1.97
2022-08-10T22:59:07.360Z,2.00
2022-08-10T23:01:42.144Z,2.10
2022-08-10T23:04:34.882Z,1.90
2022-08-10T23:07:09.193Z,2.20
2022-08-10T23:09:42.117Z,1.87
2022-08-10T23:12:13.227Z,2.00
2022-08-10T23:14:41.715Z,1.90
2022-08-10T23:18:01.106Z,2.07
2022-08-10T23:20:31.122Z,2.60
2022-08-10T23:23:08.947Z,2.27
2022-08-10T23:25:57.431Z,2.10
2022-08-10T23:28:57.364Z,2.23
2022-08-10T23:31:15.043Z,2.10
2022-08-10T23:33:43.638Z,2.30
2022-08-10T23:36:34.612Z,2.10
2022-08-10T23:39:26.933Z,2.20
2022-08-10T23:42:01.932Z,2.63
2022-08-10T23:44:36.914Z,2.00
2022-08-10T23:47:05.700Z,2.60
2022-08-10T23:49:35.438Z,2.20
2022-08-10T23:52:10.435Z,2.30
2022-08-10T23:54:44.654Z,2.40
2022-08-10T23:57:17.471Z,2.20
2022-08-10T23:59:51.605Z,2.37
